createdAt,value
2017-05-01T00:00:08.141Z,1000.06
2017-05-01T00:01:08.191Z,1000.00
2017-05-01T00:02:08.215Z,1000.08
2017-05-01T00:03:08.153Z,1000.03
2017-05-01T00:04:08.229Z,1000.06
2017-05-01T00:05:08.180Z,1000.04
2017-05-01T00:06:08.203Z,1000.09
2017-05-01T00:07:08.185Z,1000.08
2017-05-01T00:08:08.207Z,1000.04
2017-05-01T00:09:08.147Z,1000.02
2017-05-01T00:10:08.187Z,1000.07
2017-05-01T00:11:08.136Z,1000.08
2017-05-01T00:12:08.134Z,1000.05
2017-05-01T00:13:08.128Z,1000.04
2017-05-01T00:14:08.244Z,1000.04
2017-05-01T00:15:08.183Z,1000.05
2017-05-01T00:16:08.196Z,1000.06
2017-05-01T00:17:08.200Z,1000.04
2017-05-01T00:18:08.221Z,1000.00
2017-05-01T00:19:08.200Z,999.97
2017-05-01T00:20:08.199Z,999.99
2017-05-01T00:21:08.177Z,1000.00
2017-05-01T00:22:08.214Z,999.97
2017-05-01T00:23:08.157Z,1000.03
2017-05-01T00:24:08.197Z,1000.03
2017-05-01T00:25:08.195Z,999.98
2017-05-01T00:26:08.216Z,1000.00
2017-05-01T00:27:08.149Z,1000.02
2017-05-01T00:28:08.157Z,999.99
2017-05-01T00:29:08.162Z,999.96
2017-05-01T00:30:08.162Z,999.92
2017-05-01T00:31:08.187Z,999.93
2017-05-01T00:32:08.268Z,999.97
2017-05-01T00:33:08.237Z,999.94
2017-05-01T00:34:08.218Z,999.92
2017-05-01T00:35:08.190Z,999.98
2017-05-01T00:36:08.280Z,1000.01
2017-05-01T00:37:08.173Z,999.95
2017-05-01T00:38:08.253Z,999.91
2017-05-01T00:39:08.248Z,999.96
2017-05-01T00:40:08.205Z,999.92
2017-05-01T00:41:08.189Z,999.92
2017-05-01T00:42:08.234Z,999.93
2017-05-01T00:43:08.285Z,999.89
2017-05-01T00:44:08.186Z,999.89
2017-05-01T00:45:08.203Z,999.93
2017-05-01T00:46:08.214Z,999.94
2017-05-01T00:47:08.213Z,999.96
2017-05-01T00:48:08.199Z,999.95
2017-05-01T00:49:08.275Z,999.94
2017-05-01T00:50:08.237Z,999.97
2017-05-01T00:51:08.280Z,999.98
2017-05-01T00:52:08.202Z,999.97
2017-05-01T00:53:08.236Z,999.96
2017-05-01T00:54:08.240Z,999.90
2017-05-01T00:55:08.249Z,999.95
2017-05-01T00:56:08.241Z,999.96
2017-05-01T00:57:08.269Z,999.96
2017-05-01T00:58:08.270Z,999.91
2017-05-01T00:59:08.186Z,999.91
2017-05-01T01:00:08.194Z,999.95
2017-05-01T01:01:08.242Z,1000.00
2017-05-01T01:02:08.168Z,999.99
2017-05-01T01:03:08.203Z,999.94
2017-05-01T01:04:08.269Z,1000.00
2017-05-01T01:05:08.186Z,999.98
2017-05-01T01:06:08.246Z,999.96
2017-05-01T01:07:08.171Z,999.92
2017-05-01T01:08:08.234Z,999.92
2017-05-01T01:09:08.239Z,999.91
2017-05-01T01:10:08.241Z,999.93
2017-05-01T01:11:08.216Z,999.89
2017-05-01T01:12:08.173Z,999.92
2017-05-01T01:13:08.207Z,999.85
2017-05-01T01:14:08.182Z,999.85
2017-05-01T01:15:08.164Z,999.80
2017-05-01T01:16:08.208Z,999.80
2017-05-01T01:17:08.184Z,999.81
2017-05-01T01:18:08.177Z,999.85
2017-05-01T01:19:08.263Z,999.81
2017-05-01T01:20:08.250Z,999.85
2017-05-01T01:21:08.217Z,999.86
2017-05-01T01:22:08.197Z,999.79
2017-05-01T01:23:08.244Z,999.84
2017-05-01T01:24:08.221Z,999.82
2017-05-01T01:25:08.220Z,999.85
2017-05-01T01:26:08.178Z,999.82
2017-05-01T01:27:08.247Z,999.85
2017-05-01T01:28:08.191Z,999.84
2017-05-01T01:29:08.250Z,999.81
2017-05-01T01:30:08.200Z,999.79
2017-05-01T01:31:08.258Z,999.71
2017-05-01T01:32:08.280Z,999.80
2017-05-01T01:33:08.242Z,999.73
2017-05-01T01:34:08.316Z,999.76
2017-05-01T01:35:08.284Z,999.71
2017-05-01T01:36:08.251Z,999.75
2017-05-01T01:37:08.306Z,999.71
2017-05-01T01:38:08.246Z,999.66
2017-05-01T01:39:08.211Z,999.69
2017-05-01T01:40:08.285Z,999.60
2017-05-01T01:41:08.250Z,999.64
2017-05-01T01:42:08.170Z,999.64
2017-05-01T01:43:08.215Z,999.66
2017-05-01T01:44:08.258Z,999.63
2017-05-01T01:45:08.177Z,999.63
2017-05-01T01:46:08.237Z,999.67
2017-05-01T01:47:08.380Z,999.62
2017-05-01T01:48:08.206Z,999.67
2017-05-01T01:49:08.243Z,999.71
2017-05-01T01:50:08.191Z,999.68
2017-05-01T01:51:08.216Z,999.70
2017-05-01T01:52:08.278Z,999.71
2017-05-01T01:53:08.267Z,999.76
2017-05-01T01:54:08.241Z,999.69
2017-05-01T01:55:08.251Z,999.76
2017-05-01T01:56:08.299Z,999.68
2017-05-01T01:57:08.201Z,999.68
2017-05-01T01:58:08.296Z,999.72
2017-05-01T01:59:08.203Z,999.71
2017-05-01T02:00:08.205Z,999.70
2017-05-01T02:01:08.265Z,999.74
2017-05-01T02:02:08.181Z,999.73
2017-05-01T02:03:08.371Z,999.72
2017-05-01T02:04:08.167Z,999.75
2017-05-01T02:05:08.204Z,999.69
2017-05-01T02:06:08.189Z,999.74
2017-05-01T02:07:08.170Z,999.67
2017-05-01T02:08:08.262Z,999.67
2017-05-01T02:09:08.365Z,999.67
2017-05-01T02:10:08.194Z,999.70
2017-05-01T02:11:08.270Z,999.68
2017-05-01T02:12:08.192Z,999.70
2017-05-01T02:13:08.278Z,999.65
2017-05-01T02:14:08.213Z,999.67
2017-05-01T02:15:08.251Z,999.74
2017-05-01T02:16:08.225Z,999.70
2017-05-01T02:17:08.193Z,999.74
2017-05-01T02:18:08.223Z,999.78
2017-05-01T02:19:08.265Z,999.72
2017-05-01T02:20:08.206Z,999.70
2017-05-01T02:21:08.269Z,999.73
2017-05-01T02:22:08.246Z,999.72
2017-05-01T02:23:08.222Z,999.80
2017-05-01T02:24:08.310Z,999.71
2017-05-01T02:25:08.290Z,999.73
2017-05-01T02:26:08.253Z,999.74
2017-05-01T02:27:08.259Z,999.79
2017-05-01T02:28:08.282Z,999.75
2017-05-01T02:29:08.279Z,999.73
2017-05-01T02:30:08.258Z,999.77
2017-05-01T02:31:08.233Z,999.72
2017-05-01T02:32:08.296Z,999.74
2017-05-01T02:33:08.252Z,999.71
2017-05-01T02:34:08.318Z,999.73
2017-05-01T02:35:08.287Z,999.63
2017-05-01T02:36:08.216Z,999.66
2017-05-01T02:37:08.286Z,999.70
2017-05-01T02:38:08.227Z,999.66
2017-05-01T02:39:08.268Z,999.63
2017-05-01T02:40:08.312Z,999.64
2017-05-01T02:41:08.231Z,999.62
2017-05-01T02:42:08.255Z,999.58
2017-05-01T02:43:08.259Z,999.58
2017-05-01T02:44:08.256Z,999.55
2017-05-01T02:45:08.241Z,999.55
2017-05-01T02:46:08.338Z,999.53
2017-05-01T02:47:08.334Z,999.59
2017-05-01T02:48:08.252Z,999.56
2017-05-01T02:49:08.354Z,999.63
2017-05-01T02:50:08.244Z,999.64
2017-05-01T02:51:08.342Z,999.51
2017-05-01T02:52:08.289Z,999.60
2017-05-01T02:53:08.291Z,999.61
2017-05-01T02:54:08.317Z,999.58
2017-05-01T02:55:08.327Z,999.62
2017-05-01T02:56:08.327Z,999.62
2017-05-01T02:57:08.340Z,999.65
2017-05-01T02:58:08.344Z,999.67
2017-05-01T02:59:08.329Z,999.67
2017-05-01T03:00:08.354Z,999.69
2017-05-01T03:01:08.263Z,999.68
2017-05-01T03:02:08.276Z,999.69
2017-05-01T03:03:08.230Z,999.66
2017-05-01T03:04:08.293Z,999.68
2017-05-01T03:05:08.299Z,999.66
2017-05-01T03:06:08.282Z,999.67
2017-05-01T03:07:08.273Z,999.69
2017-05-01T03:08:08.288Z,999.73
2017-05-01T03:09:08.305Z,999.71
2017-05-01T03:10:08.329Z,999.67
2017-05-01T03:11:08.320Z,999.70
2017-05-01T03:12:08.344Z,999.67
2017-05-01T03:13:08.290Z,999.64
2017-05-01T03:14:08.362Z,999.64
2017-05-01T03:15:08.321Z,999.68
2017-05-01T03:16:08.280Z,999.62
2017-05-01T03:17:08.315Z,999.65
2017-05-01T03:18:08.358Z,999.66
2017-05-01T03:19:08.332Z,999.67
2017-05-01T03:20:08.313Z,999.67
2017-05-01T03:21:08.351Z,999.67
2017-05-01T03:22:08.288Z,999.63
2017-05-01T03:23:08.294Z,999.68
2017-05-01T03:24:08.255Z,999.63
2017-05-01T03:25:08.247Z,999.64
2017-05-01T03:26:08.309Z,999.57
2017-05-01T03:27:08.274Z,999.61
2017-05-01T03:28:08.330Z,999.66
2017-05-01T03:29:08.228Z,999.66
2017-05-01T03:30:08.304Z,999.67
2017-05-01T03:31:08.263Z,999.58
2017-05-01T03:32:08.336Z,999.64
2017-05-01T03:33:08.339Z,999.63
2017-05-01T03:34:08.276Z,999.62
2017-05-01T03:35:08.359Z,999.67
2017-05-01T03:36:08.361Z,999.69
2017-05-01T03:37:08.373Z,999.65
2017-05-01T03:38:08.357Z,999.60
2017-05-01T03:39:08.361Z,999.59
2017-05-01T03:40:08.360Z,999.63
2017-05-01T03:41:08.341Z,999.68
2017-05-01T03:42:08.264Z,999.61
2017-05-01T03:43:08.241Z,999.67
2017-05-01T03:44:08.225Z,999.65
2017-05-01T03:45:08.301Z,999.67
2017-05-01T03:46:08.291Z,999.69
2017-05-01T03:47:08.274Z,999.74
2017-05-01T03:48:08.282Z,999.73
2017-05-01T03:49:08.274Z,999.70
2017-05-01T03:50:08.248Z,999.74
2017-05-01T03:51:08.313Z,999.75
2017-05-01T03:52:08.305Z,999.79
2017-05-01T03:53:08.253Z,999.79
2017-05-01T03:54:08.314Z,999.76
2017-05-01T03:55:08.331Z,999.81
2017-05-01T03:56:08.258Z,999.81
2017-05-01T03:57:08.301Z,999.74
2017-05-01T03:58:08.266Z,999.81
2017-05-01T03:59:08.322Z,999.82
2017-05-01T04:00:08.363Z,999.76
2017-05-01T04:01:08.287Z,999.83
2017-05-01T04:02:08.345Z,999.81
2017-05-01T04:03:08.340Z,999.82
2017-05-01T04:04:08.380Z,999.79
2017-05-01T04:05:08.353Z,999.83
2017-05-01T04:06:08.325Z,999.81
2017-05-01T04:07:08.310Z,999.92
2017-05-01T04:08:08.282Z,999.84
2017-05-01T04:09:08.351Z,999.91
2017-05-01T04:10:08.354Z,999.91
2017-05-01T04:11:08.313Z,999.88
2017-05-01T04:12:08.246Z,999.85
2017-05-01T04:13:08.291Z,999.86
2017-05-01T04:14:08.315Z,999.93
2017-05-01T04:15:08.313Z,999.91
2017-05-01T04:16:08.346Z,999.90
2017-05-01T04:17:08.343Z,999.92
2017-05-01T04:18:08.342Z,999.85
2017-05-01T04:19:08.287Z,999.82
2017-05-01T04:20:08.291Z,999.81
2017-05-01T04:21:08.310Z,999.83
2017-05-01T04:22:08.352Z,999.83
2017-05-01T04:23:08.335Z,999.83
2017-05-01T04:24:08.367Z,999.77
2017-05-01T04:25:08.381Z,999.81
2017-05-01T04:26:08.359Z,999.85
2017-05-01T04:27:08.327Z,999.83
2017-05-01T04:28:08.378Z,999.82
2017-05-01T04:29:08.292Z,999.77
2017-05-01T04:30:08.326Z,999.81
2017-05-01T04:31:08.322Z,999.82
2017-05-01T04:32:08.337Z,999.78
2017-05-01T04:33:08.311Z,999.87
2017-05-01T04:34:08.308Z,999.81
2017-05-01T04:35:08.288Z,999.81
2017-05-01T04:36:08.335Z,999.84
2017-05-01T04:37:08.326Z,999.83
2017-05-01T04:38:08.314Z,999.86
2017-05-01T04:39:08.285Z,999.90
2017-05-01T04:40:08.365Z,999.85
2017-05-01T04:41:08.364Z,999.91
2017-05-01T04:42:08.337Z,999.83
2017-05-01T04:43:08.362Z,999.89
2017-05-01T04:44:08.288Z,999.93
2017-05-01T04:45:08.339Z,999.93
2017-05-01T04:46:08.366Z,999.90
2017-05-01T04:47:08.318Z,999.91
2017-05-01T04:48:08.352Z,999.90
2017-05-01T04:49:08.338Z,999.91
2017-05-01T04:50:08.280Z,999.93
2017-05-01T04:51:08.280Z,999.98
2017-05-01T04:52:08.402Z,999.95
2017-05-01T04:53:08.359Z,999.86
2017-05-01T04:54:08.358Z,1000.00
2017-05-01T04:55:08.320Z,999.95
2017-05-01T04:56:08.317Z,999.90
2017-05-01T04:57:08.346Z,1000.00
2017-05-01T04:58:08.318Z,1000.02
2017-05-01T04:59:08.296Z,999.94
2017-05-01T05:00:08.314Z,1000.06
2017-05-01T05:01:08.308Z,999.96
2017-05-01T05:02:08.338Z,999.99
2017-05-01T05:03:08.300Z,999.99
2017-05-01T05:04:08.342Z,1000.09
2017-05-01T05:05:08.302Z,1000.06
2017-05-01T05:06:08.292Z,1000.03
2017-05-01T05:07:08.383Z,1000.06
2017-05-01T05:08:08.326Z,1000.04
2017-05-01T05:09:08.381Z,1000.06
2017-05-01T05:10:08.301Z,1000.03
2017-05-01T05:11:08.342Z,1000.01
2017-05-01T05:12:08.356Z,1000.08
2017-05-01T05:13:08.335Z,1000.10
2017-05-01T05:14:08.384Z,1000.11
2017-05-01T05:15:08.398Z,1000.08
2017-05-01T05:16:08.409Z,1000.09
2017-05-01T05:17:08.390Z,1000.07
2017-05-01T05:18:08.353Z,1000.07
2017-05-01T05:19:08.401Z,1000.05
2017-05-01T05:20:08.305Z,1000.07
2017-05-01T05:21:08.399Z,1000.13
2017-05-01T05:22:08.331Z,1000.06
2017-05-01T05:23:08.361Z,1000.08
2017-05-01T05:24:08.358Z,1000.10
2017-05-01T05:25:08.387Z,1000.11
2017-05-01T05:26:08.388Z,1000.13
2017-05-01T05:27:08.372Z,1000.20
2017-05-01T05:28:08.327Z,1000.08
2017-05-01T05:29:08.350Z,1000.10
2017-05-01T05:30:08.415Z,1000.09
2017-05-01T05:31:08.382Z,1000.03
2017-05-01T05:32:08.412Z,1000.10
2017-05-01T05:33:08.370Z,1000.07
2017-05-01T05:34:08.392Z,1000.09
2017-05-01T05:35:08.347Z,1000.11
2017-05-01T05:36:08.369Z,1000.11
2017-05-01T05:37:08.426Z,1000.10
2017-05-01T05:38:08.339Z,1000.09
2017-05-01T05:39:08.340Z,1000.13
2017-05-01T05:40:08.404Z,1000.14
2017-05-01T05:41:08.425Z,1000.09
2017-05-01T05:42:08.327Z,1000.13
2017-05-01T05:43:08.419Z,1000.08
2017-05-01T05:44:08.331Z,1000.08
2017-05-01T05:45:08.331Z,1000.10
2017-05-01T05:46:08.432Z,1000.09
2017-05-01T05:47:08.425Z,1000.02
2017-05-01T05:48:08.426Z,1000.08
2017-05-01T05:49:08.429Z,1000.11
2017-05-01T05:50:08.402Z,1000.13
2017-05-01T05:51:08.411Z,1000.12
2017-05-01T05:52:08.399Z,1000.09
2017-05-01T05:53:08.331Z,1000.18
2017-05-01T05:54:08.336Z,1000.15
2017-05-01T05:55:08.376Z,1000.11
2017-05-01T05:56:08.331Z,1000.19
2017-05-01T05:57:08.433Z,1000.15
2017-05-01T05:58:08.354Z,1000.22
2017-05-01T05:59:08.353Z,1000.15
2017-05-01T06:00:08.371Z,1000.21
2017-05-01T06:01:08.397Z,1000.21
2017-05-01T06:02:08.329Z,1000.24
2017-05-01T06:03:08.344Z,1000.12
2017-05-01T06:04:08.386Z,1000.10
2017-05-01T06:05:08.428Z,1000.11
2017-05-01T06:06:08.407Z,1000.19
2017-05-01T06:07:08.396Z,1000.14
2017-05-01T06:08:08.378Z,1000.15
2017-05-01T06:09:08.489Z,1000.15
2017-05-01T06:10:08.384Z,1000.18
2017-05-01T06:11:08.385Z,1000.20
2017-05-01T06:12:08.372Z,1000.21
2017-05-01T06:13:08.336Z,1000.30
2017-05-01T06:14:08.381Z,1000.28
2017-05-01T06:15:08.361Z,1000.24
2017-05-01T06:16:08.439Z,1000.26
2017-05-01T06:17:08.435Z,1000.20
2017-05-01T06:18:08.339Z,1000.24
2017-05-01T06:19:08.411Z,1000.28
2017-05-01T06:20:08.432Z,1000.25
2017-05-01T06:21:08.391Z,1000.18
2017-05-01T06:22:08.360Z,1000.12
2017-05-01T06:23:08.339Z,1000.25
2017-05-01T06:24:08.326Z,1000.25
2017-05-01T06:25:08.308Z,1000.22
2017-05-01T06:26:08.375Z,1000.23
2017-05-01T06:27:08.361Z,1000.27
2017-05-01T06:28:08.394Z,1000.12
2017-05-01T06:29:08.393Z,1000.23
2017-05-01T06:30:08.413Z,1000.26
2017-05-01T06:31:08.351Z,1000.22
2017-05-01T06:32:08.380Z,1000.25
2017-05-01T06:33:08.409Z,1000.26
2017-05-01T06:34:08.357Z,1000.22
2017-05-01T06:35:08.390Z,1000.21
2017-05-01T06:36:08.420Z,1000.21
2017-05-01T06:37:08.430Z,1000.27
2017-05-01T06:38:08.449Z,1000.28
2017-05-01T06:39:08.426Z,1000.30
2017-05-01T06:40:08.349Z,1000.30
2017-05-01T06:41:08.375Z,1000.27
2017-05-01T06:42:08.385Z,1000.38
2017-05-01T06:43:08.409Z,1000.31
2017-05-01T06:44:08.394Z,1000.35
2017-05-01T06:45:08.391Z,1000.36
2017-05-01T06:46:08.359Z,1000.38
2017-05-01T06:47:08.391Z,1000.42
2017-05-01T06:48:08.427Z,1000.40
2017-05-01T06:49:08.417Z,1000.43
2017-05-01T06:50:08.442Z,1000.54
2017-05-01T06:51:08.390Z,1000.55
2017-05-01T06:52:08.429Z,1000.53
2017-05-01T06:53:08.424Z,1000.54
2017-05-01T06:54:08.430Z,1000.50
2017-05-01T06:55:08.373Z,1000.55
2017-05-01T06:56:08.412Z,1000.54
2017-05-01T06:57:08.372Z,1000.52
2017-05-01T06:58:08.427Z,1000.44
2017-05-01T06:59:08.458Z,1000.51
2017-05-01T07:00:08.440Z,1000.48
2017-05-01T07:01:08.438Z,1000.54
2017-05-01T07:02:08.435Z,1000.45
2017-05-01T07:03:08.358Z,1000.51
2017-05-01T07:04:08.439Z,1000.53
2017-05-01T07:05:08.412Z,1000.57
2017-05-01T07:06:08.390Z,1000.55
2017-05-01T07:07:08.417Z,1000.57
2017-05-01T07:08:08.356Z,1000.50
2017-05-01T07:09:08.396Z,1000.51
2017-05-01T07:10:08.374Z,1000.50
2017-05-01T07:11:08.369Z,1000.54
2017-05-01T07:12:08.462Z,1000.58
2017-05-01T07:13:08.365Z,1000.54
2017-05-01T07:14:08.383Z,1000.50
2017-05-01T07:15:08.448Z,1000.51
2017-05-01T07:16:08.447Z,1000.57
2017-05-01T07:17:08.448Z,1000.55
2017-05-01T07:18:08.440Z,1000.58
2017-05-01T07:19:08.455Z,1000.66
2017-05-01T07:20:08.463Z,1000.67
2017-05-01T07:21:08.370Z,1000.74
2017-05-01T07:22:08.466Z,1000.69
2017-05-01T07:23:08.455Z,1000.65
2017-05-01T07:24:08.464Z,1000.63
2017-05-01T07:25:08.421Z,1000.73
2017-05-01T07:26:08.470Z,1000.72
2017-05-01T07:27:08.448Z,1000.72
2017-05-01T07:28:08.379Z,1000.69
2017-05-01T07:29:08.409Z,1000.68
2017-05-01T07:30:08.473Z,1000.74
2017-05-01T07:31:08.414Z,1000.72
2017-05-01T07:32:08.482Z,1000.75
2017-05-01T07:33:08.424Z,1000.69
2017-05-01T07:34:08.348Z,1000.76
2017-05-01T07:35:08.381Z,1000.74
2017-05-01T07:36:08.418Z,1000.78
2017-05-01T07:37:08.433Z,1000.72
2017-05-01T07:38:08.393Z,1000.77
2017-05-01T07:39:08.436Z,1000.71
2017-05-01T07:40:08.406Z,1000.76
2017-05-01T07:41:08.394Z,1000.74
2017-05-01T07:42:08.369Z,1000.74
2017-05-01T07:43:08.399Z,1000.75
2017-05-01T07:44:08.419Z,1000.68
2017-05-01T07:45:08.432Z,1000.77
2017-05-01T07:46:08.475Z,1000.71
2017-05-01T07:47:08.481Z,1000.74
2017-05-01T07:48:08.456Z,1000.75
2017-05-01T07:49:08.465Z,1000.72
2017-05-01T07:50:08.473Z,1000.76
2017-05-01T07:51:08.398Z,1000.78
2017-05-01T07:52:08.437Z,1000.79
2017-05-01T07:53:08.408Z,1000.78
2017-05-01T07:54:08.435Z,1000.72
2017-05-01T07:55:08.423Z,1000.77
2017-05-01T07:56:08.447Z,1000.74
2017-05-01T07:57:08.486Z,1000.72
2017-05-01T07:58:08.443Z,1000.75
2017-05-01T07:59:08.470Z,1000.71
2017-05-01T08:00:08.473Z,1000.70
2017-05-01T08:01:08.443Z,1000.74
2017-05-01T08:02:08.396Z,1000.77
2017-05-01T08:03:08.406Z,1000.75
2017-05-01T08:04:08.440Z,1000.77
2017-05-01T08:05:08.456Z,1000.78
2017-05-01T08:06:08.456Z,1000.76
2017-05-01T08:07:08.423Z,1000.78
2017-05-01T08:08:08.453Z,1000.77
2017-05-01T08:09:08.370Z,1000.77
2017-05-01T08:10:08.423Z,1000.76
2017-05-01T08:11:08.406Z,1000.75
2017-05-01T08:12:08.411Z,1000.71
2017-05-01T08:13:08.414Z,1000.71
2017-05-01T08:15:08.396Z,1000.75
2017-05-01T08:16:08.397Z,1000.72
2017-05-01T08:17:08.472Z,1000.79
2017-05-01T08:18:08.456Z,1000.74
2017-05-01T08:19:08.454Z,1000.74
2017-05-01T08:20:08.475Z,1000.75
2017-05-01T08:21:08.466Z,1000.67
2017-05-01T08:22:08.381Z,1000.71
2017-05-01T08:23:08.477Z,1000.71
2017-05-01T08:24:08.420Z,1000.67
2017-05-01T08:25:08.468Z,1000.64
2017-05-01T08:26:08.468Z,1000.65
2017-05-01T08:27:08.421Z,1000.68
2017-05-01T08:28:08.418Z,1000.64
2017-05-01T08:29:08.458Z,1000.61
2017-05-01T08:30:08.410Z,1000.64
2017-05-01T08:31:08.504Z,1000.64
2017-05-01T08:32:08.477Z,1000.64
2017-05-01T08:33:08.417Z,1000.69
2017-05-01T08:34:08.481Z,1000.68
2017-05-01T08:35:08.429Z,1000.64
2017-05-01T08:36:08.469Z,1000.65
2017-05-01T08:37:08.432Z,1000.71
2017-05-01T08:38:08.497Z,1000.70
2017-05-01T08:39:08.462Z,1000.71
2017-05-01T08:40:08.405Z,1000.68
2017-05-01T08:41:08.440Z,1000.68
2017-05-01T08:42:08.474Z,1000.66
2017-05-01T08:43:08.457Z,1000.66
2017-05-01T08:44:08.449Z,1000.67
2017-05-01T08:45:08.475Z,1000.65
2017-05-01T08:46:08.425Z,1000.64
2017-05-01T08:47:08.402Z,1000.67
2017-05-01T08:48:08.492Z,1000.66
2017-05-01T08:49:08.493Z,1000.64
2017-05-01T08:50:08.487Z,1000.61
2017-05-01T08:51:08.459Z,1000.62
2017-05-01T08:52:08.403Z,1000.58
2017-05-01T08:53:08.404Z,1000.58
2017-05-01T08:54:08.373Z,1000.63
2017-05-01T08:55:08.383Z,1000.67
2017-05-01T08:56:08.386Z,1000.63
2017-05-01T08:57:08.448Z,1000.56
2017-05-01T08:58:08.473Z,1000.56
2017-05-01T08:59:08.400Z,1000.62
2017-05-01T09:00:08.412Z,1000.62
2017-05-01T09:01:08.434Z,1000.56
2017-05-01T09:02:08.459Z,1000.55
2017-05-01T09:03:08.429Z,1000.58
2017-05-01T09:04:08.518Z,1000.56
2017-05-01T09:05:08.446Z,1000.61
2017-05-01T09:06:08.465Z,1000.59
2017-05-01T09:07:08.453Z,1000.64
2017-05-01T09:08:08.481Z,1000.64
2017-05-01T09:09:08.462Z,1000.67
2017-05-01T09:10:08.425Z,1000.63
2017-05-01T09:11:08.527Z,1000.59
2017-05-01T09:12:08.527Z,1000.62
2017-05-01T09:13:08.427Z,1000.63
2017-05-01T09:14:08.521Z,1000.62
2017-05-01T09:15:08.467Z,1000.62
2017-05-01T09:16:08.499Z,1000.66
2017-05-01T09:17:08.462Z,1000.64
2017-05-01T09:18:08.511Z,1000.60
2017-05-01T09:19:08.483Z,1000.61
2017-05-01T09:20:08.483Z,1000.64
2017-05-01T09:21:08.501Z,1000.65
2017-05-01T09:22:08.532Z,1000.66
2017-05-01T09:23:08.478Z,1000.70
2017-05-01T09:24:08.443Z,1000.73
2017-05-01T09:25:08.425Z,1000.66
2017-05-01T09:26:08.478Z,1000.65
2017-05-01T09:27:08.486Z,1000.65
2017-05-01T09:28:08.492Z,1000.58
2017-05-01T09:29:08.515Z,1000.63
2017-05-01T09:30:08.432Z,1000.59
2017-05-01T09:31:08.436Z,1000.68
2017-05-01T09:32:08.474Z,1000.61
2017-05-01T09:33:08.457Z,1000.65
2017-05-01T09:34:08.483Z,1000.58
2017-05-01T09:35:08.467Z,1000.63
2017-05-01T09:36:08.475Z,1000.62
2017-05-01T09:37:08.540Z,1000.64
2017-05-01T09:38:08.476Z,1000.65
2017-05-01T09:39:08.443Z,1000.65
2017-05-01T09:40:08.460Z,1000.71
2017-05-01T09:41:08.501Z,1000.69
2017-05-01T09:42:08.485Z,1000.74
2017-05-01T09:43:08.513Z,1000.70
2017-05-01T09:44:08.545Z,1000.71
2017-05-01T09:45:08.485Z,1000.69
2017-05-01T09:46:08.468Z,1000.73
2017-05-01T09:47:08.486Z,1000.72
2017-05-01T09:48:08.539Z,1000.68
2017-05-01T09:49:08.518Z,1000.76
2017-05-01T09:50:08.478Z,1000.76
2017-05-01T09:51:08.541Z,1000.74
2017-05-01T09:52:08.547Z,1000.80
2017-05-01T09:53:08.514Z,1000.78
2017-05-01T09:54:08.506Z,1000.77
2017-05-01T09:55:08.454Z,1000.77
2017-05-01T09:56:08.544Z,1000.81
2017-05-01T09:57:08.514Z,1000.72
2017-05-01T09:58:08.474Z,1000.78
2017-05-01T09:59:08.456Z,1000.78
2017-05-01T10:00:08.538Z,1000.83
2017-05-01T10:01:08.552Z,1000.76
2017-05-01T10:02:08.534Z,1000.76
2017-05-01T10:03:08.471Z,1000.76
2017-05-01T10:04:08.476Z,1000.78
2017-05-01T10:05:08.465Z,1000.81
2017-05-01T10:06:08.466Z,1000.83
2017-05-01T10:07:08.464Z,1000.80
2017-05-01T10:08:08.450Z,1000.82
2017-05-01T10:09:08.457Z,1000.89
2017-05-01T10:10:08.516Z,1000.86
2017-05-01T10:11:08.510Z,1000.90
2017-05-01T10:12:08.439Z,1000.87
2017-05-01T10:13:08.567Z,1000.94
2017-05-01T10:14:08.547Z,1001.00
2017-05-01T10:15:08.533Z,1000.96
2017-05-01T10:16:08.537Z,1000.93
2017-05-01T10:17:08.511Z,1000.93
2017-05-01T10:18:08.526Z,1000.93
2017-05-01T10:19:08.554Z,1000.92
2017-05-01T10:20:08.469Z,1000.91
2017-05-01T10:21:08.559Z,1000.92
2017-05-01T10:22:08.525Z,1000.91
2017-05-01T10:23:08.442Z,1000.90
2017-05-01T10:24:08.459Z,1000.94
2017-05-01T10:25:08.526Z,1000.94
2017-05-01T10:26:08.466Z,1000.93
2017-05-01T10:27:08.570Z,1000.96
2017-05-01T10:28:08.529Z,1000.98
2017-05-01T10:29:08.531Z,1001.02
2017-05-01T10:30:08.548Z,1000.98
2017-05-01T10:31:08.472Z,1000.95
2017-05-01T10:32:08.461Z,1000.94
2017-05-01T10:33:08.521Z,1000.99
2017-05-01T10:34:08.564Z,1000.99
2017-05-01T10:35:08.526Z,1001.02
2017-05-01T10:36:08.494Z,1000.99
2017-05-01T10:37:08.469Z,1001.02
2017-05-01T10:38:08.437Z,1001.01
2017-05-01T10:39:08.450Z,1000.94
2017-05-01T10:40:08.469Z,1001.02
2017-05-01T10:41:08.508Z,1000.97
2017-05-01T10:42:08.509Z,1000.95
2017-05-01T10:43:08.542Z,1000.99
2017-05-01T10:44:08.492Z,1000.95
2017-05-01T10:45:08.569Z,1000.93
2017-05-01T10:46:08.490Z,1000.96
2017-05-01T10:47:08.527Z,1000.92
2017-05-01T10:48:08.549Z,1001.03
2017-05-01T10:49:08.548Z,1001.02
2017-05-01T10:50:08.634Z,1001.00
2017-05-01T10:51:08.525Z,1001.01
2017-05-01T10:52:08.494Z,1001.03
2017-05-01T10:53:08.549Z,1001.00
2017-05-01T10:54:08.487Z,1000.98
2017-05-01T10:55:08.566Z,1001.01
2017-05-01T10:56:08.462Z,1001.02
2017-05-01T10:57:08.483Z,1001.04
2017-05-01T10:58:08.568Z,1000.97
2017-05-01T10:59:08.475Z,1000.93
2017-05-01T11:00:08.484Z,1000.95
2017-05-01T11:01:08.500Z,1001.01
2017-05-01T11:02:08.517Z,1001.04
2017-05-01T11:03:08.579Z,1001.02
2017-05-01T11:04:08.567Z,1000.99
2017-05-01T11:05:08.485Z,1001.01
2017-05-01T11:06:08.550Z,1000.99
2017-05-01T11:07:08.567Z,1001.01
2017-05-01T11:08:08.542Z,1001.04
2017-05-01T11:09:08.591Z,1001.06
2017-05-01T11:10:08.583Z,1001.07
2017-05-01T11:11:08.506Z,1001.02
2017-05-01T11:12:08.520Z,1001.07
2017-05-01T11:13:08.518Z,1001.10
2017-05-01T11:14:08.524Z,1001.10
2017-05-01T11:15:08.549Z,1001.17
2017-05-01T11:16:08.551Z,1001.15
2017-05-01T11:17:08.527Z,1001.20
2017-05-01T11:18:08.472Z,1001.13
2017-05-01T11:19:08.530Z,1001.13
2017-05-01T11:20:08.470Z,1001.19
2017-05-01T11:21:08.532Z,1001.17
2017-05-01T11:22:08.570Z,1001.18
2017-05-01T11:23:08.569Z,1001.15
2017-05-01T11:24:08.561Z,1001.14
2017-05-01T11:25:08.537Z,1001.20
2017-05-01T11:26:08.492Z,1001.17
2017-05-01T11:27:08.475Z,1001.17
2017-05-01T11:28:08.585Z,1001.15
2017-05-01T11:29:08.566Z,1001.19
2017-05-01T11:30:08.511Z,1001.20
2017-05-01T11:31:08.477Z,1001.15
2017-05-01T11:32:08.479Z,1001.20
2017-05-01T11:33:08.588Z,1001.24
2017-05-01T11:34:08.580Z,1001.19
2017-05-01T11:35:08.550Z,1001.19
2017-05-01T11:36:08.597Z,1001.15
2017-05-01T11:37:08.588Z,1001.18
2017-05-01T11:38:08.515Z,1001.17
2017-05-01T11:39:08.548Z,1001.23
2017-05-01T11:40:08.599Z,1001.15
2017-05-01T11:41:08.579Z,1001.13
2017-05-01T11:42:08.547Z,1001.22
2017-05-01T11:43:08.542Z,1001.19
2017-05-01T11:44:08.467Z,1001.18
2017-05-01T11:45:08.510Z,1001.18
2017-05-01T11:46:08.538Z,1001.21
2017-05-01T11:47:08.539Z,1001.21
2017-05-01T11:48:08.537Z,1001.24
2017-05-01T11:49:08.500Z,1001.30
2017-05-01T11:50:08.466Z,1001.34
2017-05-01T11:51:08.552Z,1001.32
2017-05-01T11:52:08.512Z,1001.33
2017-05-01T11:53:08.579Z,1001.28
2017-05-01T11:54:08.515Z,1001.30
2017-05-01T11:55:08.509Z,1001.31
2017-05-01T11:56:08.543Z,1001.30
2017-05-01T11:57:08.585Z,1001.26
2017-05-01T11:58:08.584Z,1001.26
2017-05-01T11:59:08.523Z,1001.25
2017-05-01T12:00:08.563Z,1001.25
2017-05-01T12:01:08.495Z,1001.18
2017-05-01T12:02:08.495Z,1001.27
2017-05-01T12:03:08.526Z,1001.22
2017-05-01T12:04:08.577Z,1001.20
2017-05-01T12:05:08.527Z,1001.23
2017-05-01T12:06:08.595Z,1001.18
2017-05-01T12:07:08.609Z,1001.25
2017-05-01T12:08:08.566Z,1001.21
2017-05-01T12:09:08.564Z,1001.23
2017-05-01T12:10:08.541Z,1001.22
2017-05-01T12:11:08.561Z,1001.29
2017-05-01T12:12:08.552Z,1001.24
2017-05-01T12:13:08.583Z,1001.30
2017-05-01T12:14:08.512Z,1001.32
2017-05-01T12:15:08.530Z,1001.26